sensor_id;sensor_type;location;lat;lon;timestamp;pressure;altitude;pressure_sealevel;temperature;humidity
57799;BME280;43626;53.866;30.298;2022-11-11T00:04:46;1028.9;;;9;74.8
57799;BME280;43626;53.866;30.298;2022-11-11T00:09:46;1029;;;9;74.8
57799;BME280;43626;53.866;30.298;2022-11-11T00:14:08;1029;;;9;74.8
57799;BME280;43626;53.866;30.298;2022-11-11T00:19:02;1029;;;9;74.9
57799;BME280;43626;53.866;30.298;2022-11-11T00:24:16;1029.1;;;9.1;74.9
57799;BME280;43626;53.866;30.298;2022-11-11T00:29:44;1029.2;;;9.1;74.9
57799;BME280;43626;53.866;30.298;2022-11-11T00:34:16;1029.2;;;9.1;75
57799;BME280;43626;53.866;30.298;2022-11-11T00:39:30;1029.2;;;9.1;74.9
57799;BME280;43626;53.866;30.298;2022-11-11T00:44:28;1029.3;;;9.1;75.1
57799;BME280;43626;53.866;30.298;2022-11-11T00:49:08;1029.3;;;9.1;75.2
57799;BME280;43626;53.866;30.298;2022-11-11T00:54:12;1029.3;;;9.1;75.2
57799;BME280;43626;53.866;30.298;2022-11-11T00:59:32;1029.3;;;9.2;75.2
57799;BME280;43626;53.866;30.298;2022-11-11T01:04:36;1029.3;;;9.2;75.1
57799;BME280;43626;53.866;30.298;2022-11-11T01:09:22;1029.3;;;9.2;75
57799;BME280;43626;53.866;30.298;2022-11-11T01:14:08;1029.3;;;9.2;75.1
57799;BME280;43626;53.866;30.298;2022-11-11T01:19:46;1029.2;;;9.2;75.2
57799;BME280;43626;53.866;30.298;2022-11-11T01:24:44;1029.2;;;9.2;75.2
57799;BME280;43626;53.866;30.298;2022-11-11T01:29:26;1029.3;;;9.2;75.2
57799;BME280;43626;53.866;30.298;2022-11-11T01:34:02;1029.3;;;9.3;75.2
57799;BME280;43626;53.866;30.298;2022-11-11T01:39:00;1029.3;;;9.3;75.2
57799;BME280;43626;53.866;30.298;2022-11-11T01:44:48;1029.3;;;9.2;75.3
57799;BME280;43626;53.866;30.298;2022-11-11T01:49:21;1029.3;;;9.2;75.5
57799;BME280;43626;53.866;30.298;2022-11-11T01:54:37;1029.4;;;9.3;75.5
57799;BME280;43626;53.866;30.298;2022-11-11T01:59:03;1029.4;;;9.3;75.5
57799;BME280;43626;53.866;30.298;2022-11-11T02:04:12;1029.4;;;9.3;75.5
57799;BME280;43626;53.866;30.298;2022-11-11T02:09:10;1029.4;;;9.4;75.4
57799;BME280;43626;53.866;30.298;2022-11-11T02:14:18;1029.5;;;9.4;75.3
57799;BME280;43626;53.866;30.298;2022-11-11T02:19:43;1029.5;;;9.5;75.2
57799;BME280;43626;53.866;30.298;2022-11-11T02:24:50;1029.6;;;9.5;75.2
57799;BME280;43626;53.866;30.298;2022-11-11T02:29:36;1029.6;;;9.5;75.2
57799;BME280;43626;53.866;30.298;2022-11-11T02:34:34;1029.7;;;9.6;74.8
57799;BME280;43626;53.866;30.298;2022-11-11T02:39:16;1029.7;;;9.6;74.6
57799;BME280;43626;53.866;30.298;2022-11-11T02:44:50;1029.7;;;9.6;74.5
57799;BME280;43626;53.866;30.298;2022-11-11T02:49:02;1029.7;;;9.6;74.5
57799;BME280;43626;53.866;30.298;2022-11-11T02:54:18;1029.6;;;9.6;74.7
57799;BME280;43626;53.866;30.298;2022-11-11T02:59:24;1029.6;;;9.7;74.7
57799;BME280;43626;53.866;30.298;2022-11-11T03:04:50;1029.7;;;9.7;74.6
57799;BME280;43626;53.866;30.298;2022-11-11T03:09:50;1029.7;;;9.7;74.7
57799;BME280;43626;53.866;30.298;2022-11-11T03:14:48;1029.7;;;9.7;74.6
57799;BME280;43626;53.866;30.298;2022-11-11T03:19:02;1029.8;;;9.7;74.6
57799;BME280;43626;53.866;30.298;2022-11-11T03:24:40;1029.9;;;9.7;74.4
57799;BME280;43626;53.866;30.298;2022-11-11T03:29:32;1030;;;9.7;74.4
57799;BME280;43626;53.866;30.298;2022-11-11T03:34:26;1030;;;9.7;74.4
57799;BME280;43626;53.866;30.298;2022-11-11T03:39:48;1030;;;9.7;74.4
57799;BME280;43626;53.866;30.298;2022-11-11T03:44:00;1030.1;;;9.7;74.4
57799;BME280;43626;53.866;30.298;2022-11-11T03:49:34;1030.1;;;9.6;74.5
57799;BME280;43626;53.866;30.298;2022-11-11T03:54:08;1030.2;;;9.6;74.6
57799;BME280;43626;53.866;30.298;2022-11-11T03:59:50;1030.3;;;9.7;74.6
57799;BME280;43626;53.866;30.298;2022-11-11T04:04:26;1030.3;;;9.7;74.6
57799;BME280;43626;53.866;30.298;2022-11-11T04:09:10;1030.4;;;9.7;74.6
57799;BME280;43626;53.866;30.298;2022-11-11T04:14:22;1030.5;;;9.7;74.6
57799;BME280;43626;53.866;30.298;2022-11-11T04:19:50;1030.5;;;9.7;74.7
57799;BME280;43626;53.866;30.298;2022-11-11T04:24:50;1030.5;;;9.6;74.6
57799;BME280;43626;53.866;30.298;2022-11-11T04:29:50;1030.6;;;9.6;74.6
57799;BME280;43626;53.866;30.298;2022-11-11T04:34:12;1030.7;;;9.6;74.6
57799;BME280;43626;53.866;30.298;2022-11-11T04:39:38;1030.8;;;9.5;74.8
57799;BME280;43626;53.866;30.298;2022-11-11T04:44:32;1030.8;;;9.5;74.8
57799;BME280;43626;53.866;30.298;2022-11-11T04:49:12;1030.8;;;9.5;74.7
57799;BME280;43626;53.866;30.298;2022-11-11T04:54:48;1030.9;;;9.6;74.6
57799;BME280;43626;53.866;30.298;2022-11-11T04:59:02;1030.9;;;9.6;74.3
57799;BME280;43626;53.866;30.298;2022-11-11T05:04:32;1030.9;;;9.6;74.2
57799;BME280;43626;53.866;30.298;2022-11-11T05:09:18;1031;;;9.7;73.9
57799;BME280;43626;53.866;30.298;2022-11-11T05:14:50;1031.1;;;9.7;73.9
57799;BME280;43626;53.866;30.298;2022-11-11T05:19:26;1031.1;;;9.7;74
57799;BME280;43626;53.866;30.298;2022-11-11T05:24:10;1031.1;;;9.7;73.7
57799;BME280;43626;53.866;30.298;2022-11-11T05:29:24;1031.2;;;9.7;73.5
57799;BME280;43626;53.866;30.298;2022-11-11T05:34:50;1031.3;;;9.7;74
57799;BME280;43626;53.866;30.298;2022-11-11T05:39:50;1031.2;;;9.8;73.1
57799;BME280;43626;53.866;30.298;2022-11-11T05:44:50;1031.3;;;9.8;72.9
57799;BME280;43626;53.866;30.298;2022-11-11T05:49:24;1031.3;;;9.8;72.7
57799;BME280;43626;53.866;30.298;2022-11-11T05:54:40;1031.5;;;9.8;72.7
57799;BME280;43626;53.866;30.298;2022-11-11T05:59:34;1031.6;;;9.8;72.7
57799;BME280;43626;53.866;30.298;2022-11-11T06:04:26;1031.6;;;9.7;72.9
57799;BME280;43626;53.866;30.298;2022-11-11T06:09:50;1031.6;;;9.7;72.9
57799;BME280;43626;53.866;30.298;2022-11-11T06:14:10;1031.7;;;9.7;72.9
57799;BME280;43626;53.866;30.298;2022-11-11T06:19:14;1031.8;;;9.6;72.9
57799;BME280;43626;53.866;30.298;2022-11-11T06:24:02;1031.7;;;9.6;73
57799;BME280;43626;53.866;30.298;2022-11-11T06:29:52;1031.8;;;9.5;73.2
57799;BME280;43626;53.866;30.298;2022-11-11T06:34:16;1031.8;;;9.5;73.3
57799;BME280;43626;53.866;30.298;2022-11-11T06:39:22;1031.9;;;9.5;73.1
57799;BME280;43626;53.866;30.298;2022-11-11T06:44:00;1032;;;9.5;73
57799;BME280;43626;53.866;30.298;2022-11-11T06:49:38;1032;;;9.6;73.1
57799;BME280;43626;53.866;30.298;2022-11-11T06:54:22;1032.1;;;9.6;73
57799;BME280;43626;53.866;30.298;2022-11-11T06:59:54;1032.1;;;9.7;73
57799;BME280;43626;53.866;30.298;2022-11-11T07:04:12;1032.2;;;9.7;73
57799;BME280;43626;53.866;30.298;2022-11-11T07:09:38;1032.2;;;9.8;72.9
57799;BME280;43626;53.866;30.298;2022-11-11T07:14:36;1032.2;;;9.9;72.7
57799;BME280;43626;53.866;30.298;2022-11-11T07:19:52;1032.2;;;9.9;72.7
57799;BME280;43626;53.866;30.298;2022-11-11T07:24:54;1032.1;;;10;72.8
57799;BME280;43626;53.866;30.298;2022-11-11T07:29:12;1032.1;;;10;72.6
57799;BME280;43626;53.866;30.298;2022-11-11T07:34:24;1032.2;;;10.1;72.5
57799;BME280;43626;53.866;30.298;2022-11-11T07:39:22;1032.3;;;10.1;72.5
57799;BME280;43626;53.866;30.298;2022-11-11T07:44:38;1032.3;;;10.1;72.5
57799;BME280;43626;53.866;30.298;2022-11-11T07:49:16;1032.4;;;10.1;72.7
57799;BME280;43626;53.866;30.298;2022-11-11T07:54:02;1032.4;;;10.1;72.8
57799;BME280;43626;53.866;30.298;2022-11-11T07:59:52;1032.3;;;10.1;73.1
57799;BME280;43626;53.866;30.298;2022-11-11T08:04:38;1032.3;;;10.1;73.2
57799;BME280;43626;53.866;30.298;2022-11-11T08:09:10;1032.4;;;10.1;73.3
57799;BME280;43626;53.866;30.298;2022-11-11T08:14:52;1032.5;;;10.1;73.2
57799;BME280;43626;53.866;30.298;2022-11-11T08:19:08;1032.5;;;10.1;73.2
57799;BME280;43626;53.866;30.298;2022-11-11T08:24:38;1032.5;;;10.1;73.4
57799;BME280;43626;53.866;30.298;2022-11-11T08:29:36;1032.6;;;10.1;73.6
57799;BME280;43626;53.866;30.298;2022-11-11T08:34:38;1032.6;;;10.1;73.4
57799;BME280;43626;53.866;30.298;2022-11-11T08:39:52;1032.6;;;10.1;73.4
57799;BME280;43626;53.866;30.298;2022-11-11T08:44:12;1032.6;;;10.2;73.6
57799;BME280;43626;53.866;30.298;2022-11-11T08:49:50;1032.6;;;10.2;73.3
57799;BME280;43626;53.866;30.298;2022-11-11T08:54:20;1032.6;;;10.3;73.3
57799;BME280;43626;53.866;30.298;2022-11-11T08:59:36;1032.6;;;10.4;73.4
57799;BME280;43626;53.866;30.298;2022-11-11T09:04:26;1032.6;;;10.5;73.2
57799;BME280;43626;53.866;30.298;2022-11-11T09:09:00;1032.6;;;10.5;73
57799;BME280;43626;53.866;30.298;2022-11-11T09:14:12;1032.5;;;10.7;72.8
57799;BME280;43626;53.866;30.298;2022-11-11T09:19:36;1032.5;;;10.8;72.4
57799;BME280;43626;53.866;30.298;2022-11-11T09:24:22;1032.4;;;10.9;71.7
57799;BME280;43626;53.866;30.298;2022-11-11T09:29:52;1032.4;;;11;71.4
57799;BME280;43626;53.866;30.298;2022-11-11T09:34:02;1032.4;;;11;70.6
57799;BME280;43626;53.866;30.298;2022-11-11T09:39:38;1032.4;;;11;70.1
57799;BME280;43626;53.866;30.298;2022-11-11T09:44:29;1032.4;;;11.1;70.3
57799;BME280;43626;53.866;30.298;2022-11-11T09:49:45;1032.4;;;11.1;69.9
57799;BME280;43626;53.866;30.298;2022-11-11T09:54:54;1032.4;;;11;70
57799;BME280;43626;53.866;30.298;2022-11-11T09:59:28;1032.3;;;11;70.1
57799;BME280;43626;53.866;30.298;2022-11-11T10:04:55;1032.3;;;11;70.2
57799;BME280;43626;53.866;30.298;2022-11-11T10:09:24;1032.2;;;10.9;70.3
57799;BME280;43626;53.866;30.298;2022-11-11T10:14:35;1032.1;;;10.9;70.4
57799;BME280;43626;53.866;30.298;2022-11-11T10:19:28;1032.1;;;10.9;70.3
57799;BME280;43626;53.866;30.298;2022-11-11T10:24:14;1032.1;;;10.9;70.1
57799;BME280;43626;53.866;30.298;2022-11-11T10:29:13;1032.1;;;10.9;70.2
57799;BME280;43626;53.866;30.298;2022-11-11T10:34:40;1032.1;;;10.9;70.3
57799;BME280;43626;53.866;30.298;2022-11-11T10:39:23;1032;;;11;70.4
57799;BME280;43626;53.866;30.298;2022-11-11T10:44:53;1032;;;11;70.2
57799;BME280;43626;53.866;30.298;2022-11-11T10:49:13;1032;;;11.1;69.9
57799;BME280;43626;53.866;30.298;2022-11-11T10:54:39;1032;;;11.1;70.1
57799;BME280;43626;53.866;30.298;2022-11-11T10:59:38;1032.1;;;11.2;69.8
57799;BME280;43626;53.866;30.298;2022-11-11T11:04:39;1032.1;;;11.3;69.5
57799;BME280;43626;53.866;30.298;2022-11-11T11:09:37;1032.1;;;11.4;69.2
57799;BME280;43626;53.866;30.298;2022-11-11T11:14:11;1032.2;;;11.4;69
57799;BME280;43626;53.866;30.298;2022-11-11T11:20:05;1032.2;;;11.3;68.1
57799;BME280;43626;53.866;30.298;2022-11-11T11:24:52;1032.2;;;11.3;68.1
57799;BME280;43626;53.866;30.298;2022-11-11T11:29:04;1032.2;;;11.3;68.2
57799;BME280;43626;53.866;30.298;2022-11-11T11:34:41;1032.3;;;11.3;68.6
57799;BME280;43626;53.866;30.298;2022-11-11T11:39:10;1032.3;;;11.3;68.8
57799;BME280;43626;53.866;30.298;2022-11-11T11:44:02;1032.3;;;11.4;68.5
57799;BME280;43626;53.866;30.298;2022-11-11T11:50:00;1032.3;;;11.4;68.3
57799;BME280;43626;53.866;30.298;2022-11-11T11:54:44;1032.4;;;11.4;68.2
57799;BME280;43626;53.866;30.298;2022-11-11T11:59:54;1032.4;;;11.4;67.8
57799;BME280;43626;53.866;30.298;2022-11-11T12:04:14;1032.4;;;11.3;67.5
57799;BME280;43626;53.866;30.298;2022-11-11T12:09:53;1032.4;;;11.3;67.3
57799;BME280;43626;53.866;30.298;2022-11-11T12:14:49;1032.3;;;11.2;66.6
57799;BME280;43626;53.866;30.298;2022-11-11T12:19:42;1032.3;;;11.2;66.3
57799;BME280;43626;53.866;30.298;2022-11-11T12:24:41;1032.3;;;11.3;66.2
57799;BME280;43626;53.866;30.298;2022-11-11T12:29:17;1032.4;;;11.3;66.4
57799;BME280;43626;53.866;30.298;2022-11-11T12:35:02;1032.5;;;11.4;65.7
57799;BME280;43626;53.866;30.298;2022-11-11T12:39:54;1032.6;;;11.4;66.2
57799;BME280;43626;53.866;30.298;2022-11-11T12:44:54;1032.7;;;11.4;66.6
57799;BME280;43626;53.866;30.298;2022-11-11T12:49:04;1032.7;;;11.4;66.8
57799;BME280;43626;53.866;30.298;2022-11-11T12:54:04;1032.6;;;11.4;66.7
57799;BME280;43626;53.866;30.298;2022-11-11T12:59:04;1032.5;;;11.4;66.6
57799;BME280;43626;53.866;30.298;2022-11-11T13:04:54;1032.5;;;11.3;66.6
57799;BME280;43626;53.866;30.298;2022-11-11T13:09:28;1032.5;;;11.3;66.5
57799;BME280;43626;53.866;30.298;2022-11-11T13:14:55;1032.5;;;11.2;66.5
57799;BME280;43626;53.866;30.298;2022-11-11T13:19:14;1032.5;;;11.2;66.5
57799;BME280;43626;53.866;30.298;2022-11-11T13:24:46;1032.5;;;11.2;66.5
57799;BME280;43626;53.866;30.298;2022-11-11T13:30:24;1032.4;;;11.2;66.4
57799;BME280;43626;53.866;30.298;2022-11-11T13:34:40;1032.5;;;11.2;66.4
57799;BME280;43626;53.866;30.298;2022-11-11T13:39:37;1032.6;;;11.2;66.2
57799;BME280;43626;53.866;30.298;2022-11-11T13:44:25;1032.6;;;11.2;66.5
57799;BME280;43626;53.866;30.298;2022-11-11T13:49:51;1032.5;;;11.2;66.6
57799;BME280;43626;53.866;30.298;2022-11-11T13:54:35;1032.3;;;11.1;66.7
57799;BME280;43626;53.866;30.298;2022-11-11T13:59:23;1032.3;;;11;66.9
57799;BME280;43626;53.866;30.298;2022-11-11T14:04:26;1032.2;;;10.9;66.9
57799;BME280;43626;53.866;30.298;2022-11-11T14:09:10;1032.2;;;10.8;67
57799;BME280;43626;53.866;30.298;2022-11-11T14:14:53;1032.2;;;10.7;66.8
57799;BME280;43626;53.866;30.298;2022-11-11T14:19:28;1032.2;;;10.6;66.5
57799;BME280;43626;53.866;30.298;2022-11-11T14:24:32;1032.2;;;10.5;66.4
57799;BME280;43626;53.866;30.298;2022-11-11T14:29:53;1032.3;;;10.4;66.1
57799;BME280;43626;53.866;30.298;2022-11-11T14:34:04;1032.4;;;10.3;65.8
57799;BME280;43626;53.866;30.298;2022-11-11T14:39:51;1032.4;;;10.3;65.9
57799;BME280;43626;53.866;30.298;2022-11-11T14:44:50;1032.3;;;10.2;66
57799;BME280;43626;53.866;30.298;2022-11-11T14:49:44;1032.2;;;10.2;66.1
57799;BME280;43626;53.866;30.298;2022-11-11T14:54:33;1032.1;;;10.1;65.9
57799;BME280;43626;53.866;30.298;2022-11-11T14:59:03;1032.2;;;10;65.7
57799;BME280;43626;53.866;30.298;2022-11-11T15:04:52;1032.2;;;10;65.5
57799;BME280;43626;53.866;30.298;2022-11-11T15:09:51;1032.2;;;10;65.6
57799;BME280;43626;53.866;30.298;2022-11-11T15:14:37;1032.1;;;9.9;65.3
57799;BME280;43626;53.866;30.298;2022-11-11T15:19:30;1032.2;;;9.9;65.3
57799;BME280;43626;53.866;30.298;2022-11-11T15:24:16;1032.2;;;9.8;65.3
57799;BME280;43626;53.866;30.298;2022-11-11T15:29:20;1032.2;;;9.8;65.6
57799;BME280;43626;53.866;30.298;2022-11-11T15:34:54;1032.2;;;9.8;65.7
57799;BME280;43626;53.866;30.298;2022-11-11T15:39:25;1032.2;;;9.8;66
57799;BME280;43626;53.866;30.298;2022-11-11T15:44:38;1032.2;;;9.9;66
57799;BME280;43626;53.866;30.298;2022-11-11T15:49:13;1032.2;;;9.9;65.9
57799;BME280;43626;53.866;30.298;2022-11-11T15:54:18;1032.3;;;9.9;65.9
57799;BME280;43626;53.866;30.298;2022-11-11T15:59:38;1032.3;;;10;65.7
57799;BME280;43626;53.866;30.298;2022-11-11T16:04:45;1032.2;;;10;65.6
57799;BME280;43626;53.866;30.298;2022-11-11T16:09:36;1032.3;;;10;65.5
57799;BME280;43626;53.866;30.298;2022-11-11T16:14:25;1032.2;;;10;65.3
57799;BME280;43626;53.866;30.298;2022-11-11T16:19:17;1032.2;;;9.9;65.2
57799;BME280;43626;53.866;30.298;2022-11-11T16:24:54;1032.3;;;9.9;65.2
57799;BME280;43626;53.866;30.298;2022-11-11T16:29:54;1032.2;;;9.9;65
57799;BME280;43626;53.866;30.298;2022-11-11T16:34:21;1032.2;;;9.9;65.1
57799;BME280;43626;53.866;30.298;2022-11-11T16:39:13;1032.2;;;10;65
57799;BME280;43626;53.866;30.298;2022-11-11T16:44:27;1032.2;;;10;65
57799;BME280;43626;53.866;30.298;2022-11-11T16:49:59;1032.2;;;10;65.1
57799;BME280;43626;53.866;30.298;2022-11-11T16:54:46;1032.1;;;9.9;65.2
57799;BME280;43626;53.866;30.298;2022-11-11T16:59:05;1032;;;9.9;65.2
57799;BME280;43626;53.866;30.298;2022-11-11T17:04:02;1032;;;9.9;65.3
57799;BME280;43626;53.866;30.298;2022-11-11T17:09:00;1031.9;;;9.9;65.2
57799;BME280;43626;53.866;30.298;2022-11-11T17:14:12;1031.8;;;9.9;65.4
57799;BME280;43626;53.866;30.298;2022-11-11T17:19:40;1031.8;;;9.8;65.6
57799;BME280;43626;53.866;30.298;2022-11-11T17:24:40;1031.8;;;9.8;65.7
57799;BME280;43626;53.866;30.298;2022-11-11T17:29:26;1031.8;;;9.8;65.8
57799;BME280;43626;53.866;30.298;2022-11-11T17:34:03;1031.6;;;9.8;65.8
57799;BME280;43626;53.866;30.298;2022-11-11T17:39:52;1031.5;;;9.7;66
57799;BME280;43626;53.866;30.298;2022-11-11T17:44:54;1031.5;;;9.7;66
57799;BME280;43626;53.866;30.298;2022-11-11T17:49:26;1031.5;;;9.7;66.1
57799;BME280;43626;53.866;30.298;2022-11-11T17:54:22;1031.5;;;9.7;66.3
57799;BME280;43626;53.866;30.298;2022-11-11T17:59:02;1031.6;;;9.7;66.3
57799;BME280;43626;53.866;30.298;2022-11-11T18:04:52;1031.6;;;9.7;66.4
57799;BME280;43626;53.866;30.298;2022-11-11T18:09:22;1031.7;;;9.7;66.5
57799;BME280;43626;53.866;30.298;2022-11-11T18:14:40;1031.8;;;9.7;66.5
57799;BME280;43626;53.866;30.298;2022-11-11T18:19:02;1031.7;;;9.7;66.6
57799;BME280;43626;53.866;30.298;2022-11-11T18:24:03;1031.7;;;9.7;66.8
57799;BME280;43626;53.866;30.298;2022-11-11T18:29:24;1031.6;;;9.7;67.1
57799;BME280;43626;53.866;30.298;2022-11-11T18:34:38;1031.6;;;9.7;67.3
57799;BME280;43626;53.866;30.298;2022-11-11T18:39:38;1031.5;;;9.7;67.6
57799;BME280;43626;53.866;30.298;2022-11-11T18:44:26;1031.4;;;9.6;67.8
57799;BME280;43626;53.866;30.298;2022-11-11T18:49:03;1031.4;;;9.7;67.9
57799;BME280;43626;53.866;30.298;2022-11-11T18:54:54;1031.5;;;9.7;67.9
57799;BME280;43626;53.866;30.298;2022-11-11T18:59:52;1031.6;;;9.7;67.9
57799;BME280;43626;53.866;30.298;2022-11-11T19:04:26;1031.4;;;9.7;68.1
57799;BME280;43626;53.866;30.298;2022-11-11T19:09:12;1031.4;;;9.7;68.1
57799;BME280;43626;53.866;30.298;2022-11-11T19:14:16;1031.4;;;9.7;68.2
57799;BME280;43626;53.866;30.298;2022-11-11T19:19:55;1031.3;;;9.7;68.4
57799;BME280;43626;53.866;30.298;2022-11-11T19:24:24;1031.4;;;9.7;68.5
57799;BME280;43626;53.866;30.298;2022-11-11T19:29:18;1031.6;;;9.6;68.9
57799;BME280;43626;53.866;30.298;2022-11-11T19:34:12;1031.7;;;9.6;69.2
57799;BME280;43626;53.866;30.298;2022-11-11T19:39:11;1031.6;;;9.6;69.3
57799;BME280;43626;53.866;30.298;2022-11-11T19:44:12;1031.6;;;9.6;69.5
57799;BME280;43626;53.866;30.298;2022-11-11T19:49:40;1031.6;;;9.5;69.8
57799;BME280;43626;53.866;30.298;2022-11-11T19:54:40;1031.5;;;9.5;69.7
57799;BME280;43626;53.866;30.298;2022-11-11T19:59:02;1031.4;;;9.5;69.8
57799;BME280;43626;53.866;30.298;2022-11-11T20:04:02;1031.5;;;9.5;69.8
57799;BME280;43626;53.866;30.298;2022-11-11T20:09:54;1031.5;;;9.4;70.1
57799;BME280;43626;53.866;30.298;2022-11-11T20:14:54;1031.4;;;9.4;70.2
57799;BME280;43626;53.866;30.298;2022-11-11T20:19:26;1031.4;;;9.4;70.2
57799;BME280;43626;53.866;30.298;2022-11-11T20:24:02;1031.4;;;9.4;70.3
57799;BME280;43626;53.866;30.298;2022-11-11T20:29:02;1031.6;;;9.4;70.7
57799;BME280;43626;53.866;30.298;2022-11-11T20:34:54;1031.6;;;9.4;70.8
57799;BME280;43626;53.866;30.298;2022-11-11T20:39:22;1031.6;;;9.4;71
57799;BME280;43626;53.866;30.298;2022-11-11T20:44:38;1031.7;;;9.4;71.1
57799;BME280;43626;53.866;30.298;2022-11-11T20:49:24;1031.7;;;9.4;71.2
57799;BME280;43626;53.866;30.298;2022-11-11T20:54:12;1031.6;;;9.4;71.1
57799;BME280;43626;53.866;30.298;2022-11-11T20:59:22;1031.7;;;9.4;71.1
57799;BME280;43626;53.866;30.298;2022-11-11T21:04:40;1031.8;;;9.4;71.1
57799;BME280;43626;53.866;30.298;2022-11-11T21:09:40;1031.8;;;9.5;71.1
57799;BME280;43626;53.866;30.298;2022-11-11T21:14:26;1031.8;;;9.5;71.1
57799;BME280;43626;53.866;30.298;2022-11-11T21:19:14;1031.9;;;9.5;71.1
57799;BME280;43626;53.866;30.298;2022-11-11T21:24:54;1031.9;;;9.4;71.3
57799;BME280;43626;53.866;30.298;2022-11-11T21:29:42;1031.8;;;9.4;71.5
57799;BME280;43626;53.866;30.298;2022-11-11T21:34:30;1031.7;;;9.4;71.7
57799;BME280;43626;53.866;30.298;2022-11-11T21:39:22;1031.9;;;9.3;72
57799;BME280;43626;53.866;30.298;2022-11-11T21:44:26;1031.7;;;9.3;72.1
57799;BME280;43626;53.866;30.298;2022-11-11T21:49:54;1031.7;;;9.3;72.2
57799;BME280;43626;53.866;30.298;2022-11-11T21:54:24;1031.7;;;9.4;72.1
57799;BME280;43626;53.866;30.298;2022-11-11T21:59:39;1031.8;;;9.4;72.1
57799;BME280;43626;53.866;30.298;2022-11-11T22:04:22;1031.8;;;9.4;72.2
57799;BME280;43626;53.866;30.298;2022-11-11T22:09:07;1031.9;;;9.4;72.3
57799;BME280;43626;53.866;30.298;2022-11-11T22:14:18;1031.8;;;9.4;72.3
57799;BME280;43626;53.866;30.298;2022-11-11T22:19:34;1031.6;;;9.5;72.2
57799;BME280;43626;53.866;30.298;2022-11-11T22:24:37;1031.4;;;9.4;72.4
57799;BME280;43626;53.866;30.298;2022-11-11T22:29:09;1031.3;;;9.4;72.7
57799;BME280;43626;53.866;30.298;2022-11-11T22:34:03;1031.2;;;9.3;72.9
57799;BME280;43626;53.866;30.298;2022-11-11T22:39:50;1031.2;;;9.3;73.1
57799;BME280;43626;53.866;30.298;2022-11-11T22:44:48;1031.2;;;9.3;73.3
57799;BME280;43626;53.866;30.298;2022-11-11T22:49:37;1031;;;9.3;73.5
57799;BME280;43626;53.866;30.298;2022-11-11T22:54:19;1031;;;9.3;73.5
57799;BME280;43626;53.866;30.298;2022-11-11T22:59:15;1031.1;;;9.3;73.6
57799;BME280;43626;53.866;30.298;2022-11-11T23:04:49;1031.2;;;9.3;73.4
57799;BME280;43626;53.866;30.298;2022-11-11T23:09:11;1031.2;;;9.3;73.5
57799;BME280;43626;53.866;30.298;2022-11-11T23:14:35;1031.1;;;9.3;73.5
57799;BME280;43626;53.866;30.298;2022-11-11T23:19:01;1031.2;;;9.4;73.7
57799;BME280;43626;53.866;30.298;2022-11-11T23:24:09;1031.2;;;9.4;73.7
57799;BME280;43626;53.866;30.298;2022-11-11T23:29:21;1031.1;;;9.4;73.8
57799;BME280;43626;53.866;30.298;2022-11-11T23:34:35;1031.1;;;9.4;73.9
57799;BME280;43626;53.866;30.298;2022-11-11T23:39:37;1031.1;;;9.4;74
57799;BME280;43626;53.866;30.298;2022-11-11T23:44:03;1031.1;;;9.4;74.2
57799;BME280;43626;53.866;30.298;2022-11-11T23:49:21;1031;;;9.4;74.2
57799;BME280;43626;53.866;30.298;2022-11-11T23:54:51;1031;;;9.5;74
57799;BME280;43626;53.866;30.298;2022-11-11T23:59:49;1031.1;;;9.5;73.9
